createdAt,value
2022-09-09T00:02:17.828Z,9.60
2022-09-09T00:05:11.080Z,11.27
2022-09-09T00:07:51.132Z,9.30
2022-09-09T00:10:33.455Z,11.48
2022-09-09T00:13:21.135Z,10.70
2022-09-09T00:16:02.596Z,12.60
2022-09-09T00:18:50.661Z,10.60
2022-09-09T00:21:21.307Z,11.27
2022-09-09T00:23:56.155Z,12.77
2022-09-09T00:26:42.398Z,10.13
2022-09-09T00:29:15.474Z,12.38
2022-09-09T00:31:45.663Z,9.07
2022-09-09T00:34:22.062Z,10.38
2022-09-09T00:36:57.801Z,8.60
2022-09-09T00:39:42.367Z,12.57
2022-09-09T00:42:44.261Z,10.38
2022-09-09T00:45:17.443Z,11.23
2022-09-09T00:47:54.362Z,9.55
2022-09-09T00:50:51.441Z,12.38
2022-09-09T00:53:36.327Z,10.85
2022-09-09T00:56:15.110Z,9.32
2022-09-09T00:59:16.525Z,12.07
2022-09-09T01:01:46.916Z,9.23
2022-09-09T01:04:26.489Z,8.93
2022-09-09T01:07:11.935Z,7.90
2022-09-09T01:10:02.253Z,11.05
2022-09-09T01:12:43.900Z,14.65
2022-09-09T01:15:28.512Z,8.95
2022-09-09T01:18:12.551Z,11.23
2022-09-09T01:21:30.619Z,9.65
2022-09-09T01:24:50.835Z,10.00
2022-09-09T01:27:30.344Z,9.05
2022-09-09T01:30:02.733Z,11.10
2022-09-09T01:32:43.990Z,7.70
2022-09-09T01:35:34.408Z,7.82
2022-09-09T01:38:05.729Z,11.50
2022-09-09T01:40:37.509Z,10.93
2022-09-09T01:43:08.903Z,9.23
2022-09-09T01:45:41.708Z,13.27
2022-09-09T01:48:12.156Z,10.30
2022-09-09T01:50:53.739Z,15.13
2022-09-09T01:53:25.196Z,13.13
2022-09-09T01:56:17.573Z,13.05
2022-09-09T01:59:08.177Z,11.95
2022-09-09T02:02:11.639Z,15.05
2022-09-09T02:04:55.031Z,13.15
2022-09-09T02:07:34.303Z,13.88
2022-09-09T02:10:22.224Z,13.70
2022-09-09T02:13:13.217Z,11.90
2022-09-09T02:15:54.259Z,17.48
2022-09-09T02:18:45.284Z,11.93
2022-09-09T02:21:16.604Z,16.98
2022-09-09T02:23:49.234Z,15.32
2022-09-09T02:26:23.638Z,14.65
2022-09-09T02:29:01.901Z,18.35
2022-09-09T02:31:32.737Z,19.95
2022-09-09T02:34:10.981Z,24.17
2022-09-09T02:36:45.581Z,20.77
2022-09-09T02:39:16.043Z,19.23
2022-09-09T02:41:46.130Z,18.83
2022-09-09T02:44:21.349Z,25.27
2022-09-09T02:47:16.271Z,19.92
2022-09-09T02:50:11.331Z,22.13
2022-09-09T02:53:03.266Z,26.27
2022-09-09T02:55:44.412Z,25.10
2022-09-09T02:58:21.605Z,23.50
2022-09-09T03:01:00.187Z,22.17
2022-09-09T03:03:32.479Z,22.55
2022-09-09T03:06:06.752Z,22.52
2022-09-09T03:08:37.097Z,27.48
2022-09-09T03:11:07.211Z,24.48
2022-09-09T03:13:40.145Z,24.88
2022-09-09T03:16:10.307Z,22.17
2022-09-09T03:18:47.152Z,25.77
2022-09-09T03:21:17.664Z,27.30
2022-09-09T03:23:48.145Z,28.60
2022-09-09T03:26:18.432Z,27.92
2022-09-09T03:28:50.135Z,23.85
2022-09-09T03:31:21.954Z,29.40
2022-09-09T03:33:51.913Z,21.35
2022-09-09T03:36:23.379Z,22.58
2022-09-09T03:38:53.256Z,24.95
2022-09-09T03:41:26.768Z,22.52
2022-09-09T03:43:57.071Z,26.13
2022-09-09T03:46:29.128Z,23.60
2022-09-09T03:48:59.808Z,24.80
2022-09-09T03:51:29.517Z,24.80
2022-09-09T03:54:00.297Z,23.83
2022-09-09T03:56:31.280Z,31.25
2022-09-09T03:59:02.435Z,25.88
2022-09-09T04:01:32.900Z,25.17
2022-09-09T04:04:04.418Z,22.10
2022-09-09T04:06:37.102Z,22.35
2022-09-09T04:09:07.249Z,25.95
2022-09-09T04:11:39.631Z,22.92
2022-09-09T04:14:09.916Z,25.05
2022-09-09T04:16:40.702Z,27.23
2022-09-09T04:19:12.856Z,22.75
2022-09-09T04:21:44.577Z,23.50
2022-09-09T04:24:14.799Z,27.65
2022-09-09T04:26:45.228Z,27.20
2022-09-09T04:29:15.842Z,27.02
2022-09-09T04:31:46.757Z,22.40
2022-09-09T04:34:16.765Z,21.77
2022-09-09T04:36:47.881Z,23.15
2022-09-09T04:39:18.144Z,26.42
2022-09-09T04:41:47.867Z,22.20
2022-09-09T04:44:18.018Z,23.35
2022-09-09T04:46:47.710Z,25.10
2022-09-09T04:49:17.889Z,22.60
2022-09-09T04:51:49.068Z,22.83
2022-09-09T04:54:22.107Z,20.05
2022-09-09T04:56:53.619Z,18.10
2022-09-09T04:59:24.506Z,20.52
2022-09-09T05:01:58.117Z,20.88
2022-09-09T05:04:28.972Z,15.95
2022-09-09T05:06:58.978Z,18.10
2022-09-09T05:09:28.819Z,18.60
2022-09-09T05:11:59.455Z,22.45
2022-09-09T05:14:34.101Z,18.33
2022-09-09T05:17:04.818Z,19.38
2022-09-09T05:19:36.212Z,14.85
2022-09-09T05:22:07.053Z,19.25
2022-09-09T05:24:46.366Z,18.65
2022-09-09T05:27:17.229Z,16.27
2022-09-09T05:29:47.597Z,17.17
2022-09-09T05:32:18.921Z,16.52
2022-09-09T05:34:51.552Z,19.67
2022-09-09T05:37:21.862Z,15.27
2022-09-09T05:39:53.647Z,18.77
2022-09-09T05:42:24.053Z,15.65
2022-09-09T05:44:56.456Z,16.63
2022-09-09T05:47:29.698Z,19.17
2022-09-09T05:49:59.822Z,19.17
2022-09-09T05:52:31.025Z,18.92
2022-09-09T05:55:01.886Z,16.65
2022-09-09T05:57:32.274Z,16.33
2022-09-09T06:00:02.930Z,15.25
2022-09-09T06:02:43.594Z,17.48
2022-09-09T06:05:17.534Z,14.50
2022-09-09T06:07:49.185Z,15.40
2022-09-09T06:10:19.604Z,15.30
2022-09-09T06:12:49.606Z,18.10
2022-09-09T06:15:19.563Z,14.23
2022-09-09T06:17:49.779Z,14.25
2022-09-09T06:20:19.991Z,15.25
2022-09-09T06:22:50.780Z,13.85
2022-09-09T06:25:21.425Z,14.05
2022-09-09T06:27:51.915Z,17.27
2022-09-09T06:30:21.663Z,14.50
2022-09-09T06:32:53.359Z,13.32
2022-09-09T06:35:23.684Z,15.65
2022-09-09T06:37:53.755Z,16.60
2022-09-09T06:40:23.626Z,14.32
2022-09-09T06:42:53.649Z,11.43
2022-09-09T06:45:35.503Z,13.05
2022-09-09T06:48:05.780Z,13.05
2022-09-09T06:50:35.487Z,11.73
2022-09-09T06:53:06.076Z,16.17
2022-09-09T06:55:36.053Z,13.07
2022-09-09T06:58:11.620Z,10.43
2022-09-09T07:00:41.731Z,10.43
2022-09-09T07:03:13.360Z,15.98
2022-09-09T07:05:43.210Z,13.68
2022-09-09T07:08:14.136Z,23.40
2022-09-09T07:10:45.214Z,17.33
2022-09-09T07:13:17.940Z,12.48
2022-09-09T07:15:48.374Z,14.77
2022-09-09T07:18:18.128Z,12.85
2022-09-09T07:20:58.201Z,12.02
2022-09-09T07:23:32.176Z,15.23
2022-09-09T07:26:09.605Z,15.50
2022-09-09T07:28:40.877Z,16.05
2022-09-09T07:31:23.122Z,16.55
2022-09-09T07:33:53.376Z,17.77
2022-09-09T07:36:33.249Z,14.23
2022-09-09T07:39:12.178Z,13.55
2022-09-09T07:41:48.783Z,13.85
2022-09-09T07:44:24.800Z,14.88
2022-09-09T07:47:02.113Z,12.68
2022-09-09T07:49:38.336Z,13.77
2022-09-09T07:52:09.868Z,17.52
2022-09-09T07:54:44.257Z,17.98
2022-09-09T07:57:15.709Z,18.15
2022-09-09T07:59:47.139Z,14.95
2022-09-09T08:02:17.296Z,16.27
2022-09-09T08:04:48.474Z,15.68
2022-09-09T08:07:21.717Z,21.52
2022-09-09T08:09:57.837Z,19.45
2022-09-09T08:12:36.238Z,21.75
2022-09-09T08:15:08.102Z,21.25
2022-09-09T08:17:39.804Z,16.85
2022-09-09T08:20:12.969Z,21.08
2022-09-09T08:22:44.177Z,15.98
2022-09-09T08:25:15.442Z,13.85
2022-09-09T08:27:45.351Z,18.33
2022-09-09T08:30:16.228Z,16.60
2022-09-09T08:32:47.133Z,14.95
2022-09-09T08:35:18.034Z,18.30
2022-09-09T08:37:51.522Z,17.48
2022-09-09T08:40:31.222Z,19.55
2022-09-09T08:43:05.025Z,20.33
2022-09-09T08:45:58.757Z,16.00
2022-09-09T08:48:59.034Z,16.63
2022-09-09T08:51:33.732Z,15.73
2022-09-09T08:54:05.515Z,18.33
2022-09-09T08:56:36.768Z,15.02
2022-09-09T08:59:07.374Z,17.25
2022-09-09T09:01:53.436Z,22.60
2022-09-09T09:04:48.422Z,19.40
2022-09-09T09:07:33.544Z,18.58
2022-09-09T09:10:42.615Z,19.83
2022-09-09T09:13:29.549Z,17.10
2022-09-09T09:16:12.376Z,22.98
2022-09-09T09:18:43.008Z,16.98
2022-09-09T09:21:25.772Z,18.75
2022-09-09T09:24:03.330Z,19.35
2022-09-09T09:26:38.063Z,17.95
2022-09-09T09:29:18.482Z,26.10
2022-09-09T09:31:58.705Z,23.27
2022-09-09T09:34:31.221Z,21.35
2022-09-09T09:37:03.911Z,19.92
2022-09-09T09:42:31.997Z,25.13
2022-09-09T09:45:37.698Z,34.85
2022-09-09T09:48:13.822Z,28.17
2022-09-09T09:51:00.402Z,22.83
2022-09-09T09:53:31.650Z,26.02
2022-09-09T09:56:17.113Z,17.50
2022-09-09T09:58:47.695Z,35.60
2022-09-09T10:01:29.882Z,27.58
2022-09-09T10:04:18.297Z,24.75
2022-09-09T10:06:49.815Z,22.63
2022-09-09T10:09:30.645Z,23.70
2022-09-09T10:12:19.011Z,18.13
2022-09-09T10:15:12.568Z,22.65
2022-09-09T10:18:17.488Z,24.80
2022-09-09T10:20:53.536Z,18.30
2022-09-09T10:23:49.939Z,18.67
2022-09-09T10:26:32.307Z,18.13
2022-09-09T10:29:18.560Z,22.00
2022-09-09T10:32:05.434Z,28.98
2022-09-09T10:34:59.925Z,29.60
2022-09-09T10:38:00.156Z,32.30
2022-09-09T10:43:20.051Z,29.75
2022-09-09T10:46:14.741Z,32.58
2022-09-09T10:49:01.168Z,35.33
2022-09-09T10:51:42.719Z,32.95
2022-09-09T10:54:33.386Z,29.15
2022-09-09T10:57:14.452Z,32.08
2022-09-09T10:59:50.154Z,28.23
2022-09-09T11:05:23.877Z,30.88
2022-09-09T11:11:09.429Z,32.95
2022-09-09T11:13:45.696Z,31.67
2022-09-09T11:16:25.705Z,30.63
2022-09-09T11:19:04.608Z,32.53
2022-09-09T11:21:41.846Z,35.88
2022-09-09T11:24:28.600Z,35.63
2022-09-09T11:27:09.666Z,30.92
2022-09-09T11:29:55.992Z,33.75
2022-09-09T11:33:10.581Z,33.00
2022-09-09T11:36:09.647Z,32.15
2022-09-09T11:38:54.997Z,32.22
2022-09-09T11:41:25.969Z,32.20
2022-09-09T11:43:56.009Z,37.47
2022-09-09T11:46:37.552Z,33.42
2022-09-09T11:49:09.778Z,30.77
2022-09-09T11:51:39.870Z,34.00
2022-09-09T11:54:28.153Z,35.10
2022-09-09T11:56:58.944Z,38.92
2022-09-09T11:59:33.781Z,31.50
2022-09-09T12:02:11.367Z,31.33
2022-09-09T12:04:58.278Z,31.65
2022-09-09T12:07:32.072Z,31.55
2022-09-09T12:10:22.209Z,28.77
2022-09-09T12:12:52.326Z,32.20
2022-09-09T12:15:26.647Z,35.00
2022-09-09T12:18:03.188Z,31.58
2022-09-09T12:20:37.460Z,26.48
2022-09-09T12:23:16.670Z,29.80
2022-09-09T12:25:58.449Z,26.83
2022-09-09T12:29:06.908Z,28.35
2022-09-09T12:32:00.358Z,25.52
2022-09-09T12:34:37.930Z,32.00
2022-09-09T12:37:37.222Z,32.10
2022-09-09T12:40:21.248Z,31.75
2022-09-09T12:42:52.106Z,28.02
2022-09-09T12:45:27.026Z,26.58
2022-09-09T12:48:05.723Z,28.63
2022-09-09T12:50:51.360Z,28.73
2022-09-09T12:53:32.341Z,27.98
2022-09-09T12:56:08.596Z,30.95
2022-09-09T12:58:40.484Z,33.08
2022-09-09T13:01:32.678Z,28.60
2022-09-09T13:04:03.894Z,30.30
2022-09-09T13:06:36.289Z,25.05
2022-09-09T13:09:06.490Z,27.45
2022-09-09T13:11:48.934Z,28.83
2022-09-09T13:14:42.073Z,24.98
2022-09-09T13:17:24.947Z,27.60
2022-09-09T13:19:57.166Z,28.80
2022-09-09T13:22:38.243Z,29.83
2022-09-09T13:25:14.345Z,27.92
2022-09-09T13:27:55.446Z,25.85
2022-09-09T13:30:30.506Z,25.15
2022-09-09T13:33:07.812Z,33.38
2022-09-09T13:35:49.485Z,27.77
2022-09-09T13:38:20.162Z,25.10
2022-09-09T13:41:04.882Z,29.88
2022-09-09T13:43:40.132Z,26.92
2022-09-09T13:46:34.222Z,29.35
2022-09-09T13:49:12.248Z,27.25
2022-09-09T13:51:45.167Z,31.70
2022-09-09T13:54:20.742Z,23.77
2022-09-09T13:56:52.392Z,26.60
2022-09-09T13:59:24.409Z,22.05
2022-09-09T14:01:54.477Z,29.27
2022-09-09T14:04:24.233Z,25.27
2022-09-09T14:06:54.061Z,26.42
2022-09-09T14:09:24.182Z,39.67
2022-09-09T14:11:53.952Z,25.85
2022-09-09T14:14:23.837Z,27.90
2022-09-09T14:16:53.518Z,25.33
2022-09-09T14:19:23.185Z,24.35
2022-09-09T14:21:53.018Z,23.77
2022-09-09T14:24:22.735Z,29.58
2022-09-09T14:26:52.432Z,22.73
2022-09-09T14:29:22.163Z,22.52
2022-09-09T14:31:51.853Z,24.65
2022-09-09T14:34:21.947Z,28.17
2022-09-09T14:36:51.730Z,26.88
2022-09-09T14:39:21.693Z,24.40
2022-09-09T14:41:51.405Z,24.45
2022-09-09T14:44:21.115Z,29.48
2022-09-09T14:46:52.373Z,26.27
2022-09-09T14:49:23.396Z,26.88
2022-09-09T14:51:53.294Z,25.20
2022-09-09T14:54:24.947Z,29.00
2022-09-09T14:56:54.879Z,23.85
2022-09-09T14:59:24.554Z,25.30
2022-09-09T15:01:55.300Z,28.65
2022-09-09T15:04:25.323Z,25.42
2022-09-09T15:06:56.181Z,28.80
2022-09-09T15:09:26.423Z,27.00
2022-09-09T15:11:56.219Z,29.42
2022-09-09T15:14:26.153Z,33.15
2022-09-09T15:16:55.940Z,24.90
2022-09-09T15:19:25.703Z,31.05
2022-09-09T15:21:56.313Z,27.45
2022-09-09T15:24:28.600Z,24.38
2022-09-09T15:27:00.361Z,26.45
2022-09-09T15:29:30.808Z,26.45
2022-09-09T15:32:00.497Z,25.95
2022-09-09T15:34:30.511Z,27.10
2022-09-09T15:37:02.285Z,32.45
2022-09-09T15:39:35.604Z,27.98
2022-09-09T15:42:09.829Z,31.08
2022-09-09T15:44:46.989Z,30.15
2022-09-09T15:47:17.495Z,27.67
2022-09-09T15:49:47.187Z,33.45
2022-09-09T15:52:16.901Z,29.73
2022-09-09T15:54:47.734Z,34.13
2022-09-09T15:57:17.586Z,27.73
2022-09-09T15:59:47.683Z,33.03
2022-09-09T16:02:17.458Z,28.73
2022-09-09T16:04:47.241Z,26.10
2022-09-09T16:07:17.017Z,28.15
2022-09-09T16:09:46.716Z,27.40
2022-09-09T16:12:16.753Z,27.25
2022-09-09T16:14:47.452Z,25.30
2022-09-09T16:17:17.800Z,28.25
2022-09-09T16:19:48.477Z,29.65
2022-09-09T16:22:20.406Z,27.63
2022-09-09T16:24:50.618Z,28.90
2022-09-09T16:27:20.337Z,27.63
2022-09-09T16:29:51.823Z,23.55
2022-09-09T16:32:22.374Z,25.63
2022-09-09T16:34:55.143Z,24.98
2022-09-09T16:37:25.548Z,29.63
2022-09-09T16:39:56.872Z,24.48
2022-09-09T16:42:26.913Z,24.48
2022-09-09T16:44:57.676Z,26.48
2022-09-09T16:47:27.644Z,24.85
2022-09-09T16:49:57.674Z,28.30
2022-09-09T16:52:27.425Z,26.13
2022-09-09T16:54:57.137Z,25.48
2022-09-09T16:57:26.811Z,24.10
2022-09-09T16:59:58.001Z,26.45
2022-09-09T17:02:28.419Z,27.13
2022-09-09T17:04:58.144Z,28.58
2022-09-09T17:07:28.026Z,24.42
2022-09-09T17:09:57.707Z,25.90
2022-09-09T17:12:27.667Z,29.02
2022-09-09T17:14:58.056Z,26.02
2022-09-09T17:17:32.057Z,28.02
2022-09-09T17:20:02.286Z,25.50
2022-09-09T17:22:32.101Z,29.73
2022-09-09T17:25:02.125Z,26.80
2022-09-09T17:27:35.624Z,27.58
2022-09-09T17:30:08.145Z,26.08
2022-09-09T17:32:38.829Z,26.52
2022-09-09T17:35:09.040Z,24.38
2022-09-09T17:37:38.881Z,27.27
2022-09-09T17:40:09.271Z,27.13
2022-09-09T17:42:40.052Z,23.00
2022-09-09T17:45:10.495Z,29.05
2022-09-09T17:47:40.629Z,27.73
2022-09-09T17:50:10.533Z,26.92
2022-09-09T17:52:40.455Z,26.98
2022-09-09T17:55:14.101Z,30.80
2022-09-09T17:57:45.196Z,25.77
2022-09-09T18:00:15.690Z,22.85
2022-09-09T18:02:46.931Z,23.73
2022-09-09T18:05:23.948Z,21.05
2022-09-09T18:07:55.050Z,21.80
2022-09-09T18:10:25.138Z,28.30
2022-09-09T18:12:55.869Z,24.13
2022-09-09T18:15:48.096Z,21.58
2022-09-09T18:18:15.731Z,21.08
2022-09-09T18:20:46.013Z,22.77
2022-09-09T18:23:15.727Z,22.40
2022-09-09T18:25:45.445Z,23.73
2022-09-09T18:28:15.131Z,17.50
2022-09-09T18:30:44.995Z,17.73
2022-09-09T18:33:14.811Z,20.17
2022-09-09T18:35:44.827Z,22.77
2022-09-09T18:38:14.588Z,20.15
2022-09-09T18:40:44.513Z,20.58
2022-09-09T18:43:14.654Z,21.27
2022-09-09T18:45:45.518Z,17.77
2022-09-09T18:48:15.175Z,19.27
2022-09-09T18:50:44.956Z,17.63
2022-09-09T18:53:16.795Z,20.30
2022-09-09T18:55:46.839Z,20.13
2022-09-09T18:58:16.510Z,19.08
2022-09-09T19:00:48.233Z,21.75
2022-09-09T19:03:18.721Z,20.90
2022-09-09T19:05:48.461Z,23.13
2022-09-09T19:08:18.854Z,19.52
2022-09-09T19:10:49.576Z,18.55
2022-09-09T19:13:19.593Z,21.00
2022-09-09T19:15:49.397Z,21.10
2022-09-09T19:18:19.135Z,15.70
2022-09-09T19:20:48.839Z,20.92
2022-09-09T19:23:18.522Z,17.80
2022-09-09T19:25:48.990Z,17.05
2022-09-09T19:28:19.193Z,20.83
2022-09-09T19:30:50.285Z,15.68
2022-09-09T19:33:21.421Z,16.40
2022-09-09T19:36:03.340Z,15.60
2022-09-09T19:38:33.979Z,18.27
2022-09-09T19:41:09.640Z,15.77
2022-09-09T19:43:40.069Z,25.90
2022-09-09T19:46:15.513Z,14.38
2022-09-09T19:48:47.423Z,13.20
2022-09-09T19:51:22.855Z,17.15
2022-09-09T19:53:57.284Z,21.00
2022-09-09T19:56:29.276Z,14.90
2022-09-09T19:59:00.943Z,17.85
2022-09-09T20:01:37.908Z,18.40
2022-09-09T20:04:10.448Z,14.48
2022-09-09T20:06:43.494Z,16.45
2022-09-09T20:09:18.996Z,9.23
2022-09-09T20:11:50.589Z,19.27
2022-09-09T20:14:20.931Z,18.77
2022-09-09T20:16:50.751Z,15.52
2022-09-09T20:19:20.800Z,14.80
2022-09-09T20:21:50.581Z,20.77
2022-09-09T20:24:23.993Z,21.15
2022-09-09T20:26:53.992Z,19.08
2022-09-09T20:29:23.713Z,21.15
2022-09-09T20:31:53.713Z,20.35
2022-09-09T20:34:23.975Z,20.77
2022-09-09T20:36:55.920Z,17.02
2022-09-09T20:39:26.818Z,17.00
2022-09-09T20:41:56.773Z,22.88
2022-09-09T20:44:27.391Z,19.85
2022-09-09T20:47:05.281Z,18.75
2022-09-09T20:49:38.402Z,20.05
2022-09-09T20:52:08.561Z,21.33
2022-09-09T20:54:39.890Z,21.95
2022-09-09T20:57:10.466Z,19.67
2022-09-09T20:59:40.839Z,23.83
2022-09-09T21:02:12.365Z,22.40
2022-09-09T21:04:42.446Z,17.35
2022-09-09T21:07:12.680Z,18.77
2022-09-09T21:09:42.428Z,23.73
2022-09-09T21:12:12.152Z,22.10
2022-09-09T21:14:41.878Z,19.65
2022-09-09T21:17:11.703Z,24.33
2022-09-09T21:19:42.189Z,24.75
2022-09-09T21:22:12.725Z,24.77
2022-09-09T21:24:42.602Z,26.90
2022-09-09T21:27:12.584Z,30.20
2022-09-09T21:29:42.375Z,16.02
2022-09-09T21:32:12.683Z,12.43
2022-09-09T21:34:44.434Z,16.20
2022-09-09T21:37:16.247Z,6.22
2022-09-09T21:39:46.528Z,13.27
2022-09-09T21:42:16.330Z,3.78
2022-09-09T21:44:46.020Z,5.05
2022-09-09T21:47:17.543Z,4.85
2022-09-09T21:49:47.747Z,7.05
2022-09-09T21:54:46.737Z,7.88
2022-09-09T21:57:16.465Z,2.95
2022-09-09T21:59:46.145Z,2.05
2022-09-09T22:02:16.178Z,2.03
2022-09-09T22:04:45.957Z,2.25
2022-09-09T22:07:17.836Z,1.30
2022-09-09T22:09:47.944Z,2.50
2022-09-09T22:12:17.701Z,4.25
2022-09-09T22:14:47.390Z,2.15
2022-09-09T22:17:17.562Z,2.17
2022-09-09T22:19:48.562Z,3.90
2022-09-09T22:22:19.679Z,6.47
2022-09-09T22:24:49.885Z,2.00
2022-09-09T22:27:20.266Z,2.38
2022-09-09T22:29:50.057Z,2.63
2022-09-09T22:32:19.862Z,3.55
2022-09-09T22:34:50.984Z,5.60
2022-09-09T22:37:21.234Z,2.35
2022-09-09T22:39:51.270Z,1.80
2022-09-09T22:42:21.436Z,3.97
2022-09-09T22:44:51.108Z,2.45
2022-09-09T22:49:50.572Z,1.08
2022-09-09T22:52:20.328Z,1.55
2022-09-09T22:57:19.950Z,2.00
2022-09-09T22:59:49.643Z,3.00
2022-09-09T23:04:52.554Z,1.13
2022-09-09T23:07:24.067Z,3.70
2022-09-09T23:09:54.327Z,1.23
2022-09-09T23:14:55.306Z,0.90
2022-09-09T23:17:26.111Z,1.40
2022-09-09T23:19:58.694Z,1.38
2022-09-09T23:22:29.798Z,0.85
2022-09-09T23:24:59.746Z,1.45
2022-09-09T23:27:31.006Z,1.40
2022-09-09T23:30:05.946Z,1.15
2022-09-09T23:32:35.903Z,1.75
2022-09-09T23:37:36.628Z,2.72
2022-09-09T23:40:06.693Z,2.17
2022-09-09T23:42:36.452Z,1.42
2022-09-09T23:47:36.098Z,0.82
2022-09-09T23:50:06.909Z,3.13
2022-09-09T23:52:38.279Z,10.45
2022-09-09T23:55:09.841Z,1.98
2022-09-09T23:57:40.218Z,2.15
